Time;durP1;ratioP1;P1;durP2;ratioP2;P2;SDS_P1;SDS_P2;PMS_P1;PMS_P2;Temp;Humidity;BMP_temperature;BMP_pressure;BME280_temperature;BME280_humidity;BME280_pressure;Samples;Min_cycle;Max_cycle;Signal;HPM_P1;HPM_P2
2021/11/10 00:01:58;;;;;;;2.00;1.95;;;;;;;;;;4988198;28;20077;-41
2021/11/10 00:04:25;;;;;;;2.35;2.25;;;;;;;;;;4985988;28;20077;-41
2021/11/10 00:06:52;;;;;;;2.53;2.35;;;;;;;;;;4987831;28;20089;-41
2021/11/10 00:09:19;;;;;;;2.50;2.40;;;;;;;;;;4985523;28;20047;-41
2021/11/10 00:11:45;;;;;;;2.80;1.80;;;;;;;;;;4986548;28;20378;-40
2021/11/10 00:14:12;;;;;;;3.53;1.73;;;;;;;;;;4977918;28;20038;-41
2021/11/10 00:16:39;;;;;;;2.55;2.45;;;;;;;;;;4986321;28;20038;-41
2021/11/10 00:19:06;;;;;;;2.65;2.65;;;;;;;;;;4990913;28;20037;-41
2021/11/10 00:21:32;;;;;;;3.08;2.90;;;;;;;;;;4991671;28;20694;-40
2021/11/10 00:23:59;;;;;;;2.42;2.33;;;;;;;;;;4988918;28;20124;-41
2021/11/10 00:26:26;;;;;;;3.08;2.92;;;;;;;;;;4992370;28;20445;-41
2021/11/10 00:28:53;;;;;;;5.28;3.65;;;;;;;;;;4990984;28;20108;-41
2021/11/10 00:31:20;;;;;;;2.67;2.33;;;;;;;;;;4990985;28;20561;-41
2021/11/10 00:33:47;;;;;;;2.75;2.55;;;;;;;;;;4983329;28;20431;-41
2021/11/10 00:36:14;;;;;;;3.03;2.47;;;;;;;;;;4983256;28;20038;-41
2021/11/10 00:38:41;;;;;;;2.92;2.75;;;;;;;;;;4991223;28;20046;-41
2021/11/10 00:41:08;;;;;;;2.72;2.50;;;;;;;;;;4990298;28;20410;-41
2021/11/10 00:43:35;;;;;;;2.65;2.20;;;;;;;;;;4990047;28;20061;-40
2021/11/10 00:46:01;;;;;;;2.63;2.33;;;;;;;;;;4986000;28;20031;-41
2021/11/10 00:48:28;;;;;;;2.40;2.22;;;;;;;;;;4988900;28;20994;-41
2021/11/10 00:50:55;;;;;;;2.05;1.95;;;;;;;;;;4988025;28;20046;-40
2021/11/10 00:53:22;;;;;;;3.08;2.85;;;;;;;;;;4984649;28;20035;-41
2021/11/10 00:55:48;;;;;;;4.20;2.35;;;;;;;;;;4982624;28;20046;-41
2021/11/10 00:58:15;;;;;;;3.60;2.20;;;;;;;;;;4991138;28;20078;-41
2021/11/10 01:00:42;;;;;;;2.47;2.30;;;;;;;;;;4986201;28;20080;-41
2021/11/10 01:03:11;;;;;;;2.80;2.70;;;;;;;;;;4978487;28;20050;-41
2021/11/10 01:05:39;;;;;;;2.53;2.40;;;;;;;;;;4991478;28;20041;-41
2021/11/10 01:08:07;;;;;;;1.70;1.70;;;;;;;;;;4989888;28;20411;-40
2021/11/10 01:10:34;;;;;;;2.15;1.60;;;;;;;;;;4991972;28;20451;-41
2021/11/10 01:13:01;;;;;;;2.40;2.20;;;;;;;;;;4987929;28;20411;-41
2021/11/10 01:15:28;;;;;;;2.78;2.03;;;;;;;;;;4984757;28;20074;-41
2021/11/10 01:17:55;;;;;;;1.70;1.70;;;;;;;;;;4986111;28;20125;-40
2021/11/10 01:20:22;;;;;;;2.38;2.25;;;;;;;;;;4988926;28;20097;-41
2021/11/10 01:22:48;;;;;;;2.53;2.22;;;;;;;;;;4985170;28;20482;-41
2021/11/10 01:25:15;;;;;;;2.00;2.00;;;;;;;;;;4989808;28;20678;-41
2021/11/10 01:27:42;;;;;;;2.53;2.30;;;;;;;;;;4989722;28;20042;-41
2021/11/10 01:30:09;;;;;;;6.90;3.17;;;;;;;;;;4990727;28;20046;-40
2021/11/10 01:32:36;;;;;;;3.45;3.30;;;;;;;;;;4989128;28;20054;-41
2021/11/10 01:35:03;;;;;;;3.63;3.33;;;;;;;;;;4991351;28;20070;-41
2021/11/10 01:37:30;;;;;;;5.50;3.17;;;;;;;;;;4988135;28;20037;-41
2021/11/10 01:39:56;;;;;;;2.83;2.63;;;;;;;;;;4988975;28;20046;-41
2021/11/10 01:42:25;;;;;;;2.70;2.60;;;;;;;;;;4990883;28;20444;-41
2021/11/10 01:44:52;;;;;;;3.30;3.05;;;;;;;;;;4987118;28;20124;-41
2021/11/10 01:47:19;;;;;;;3.28;3.03;;;;;;;;;;4990634;28;20042;-41
2021/11/10 01:49:46;;;;;;;4.50;4.20;;;;;;;;;;4988829;28;20375;-41
2021/11/10 01:52:13;;;;;;;4.07;3.97;;;;;;;;;;4988207;28;20038;-41
2021/11/10 01:54:40;;;;;;;5.32;4.95;;;;;;;;;;4990904;28;20096;-41
2021/11/10 01:57:08;;;;;;;5.22;5.13;;;;;;;;;;4987867;28;20042;-41
2021/11/10 01:59:42;;;;;;;6.50;6.05;;;;;;;;;;4988790;28;20046;-41
2021/11/10 02:02:20;;;;;;;4.00;3.83;;;;;;;;;;4983061;28;20053;-41
2021/11/10 02:04:47;;;;;;;5.72;3.47;;;;;;;;;;4989195;28;20057;-41
2021/11/10 02:07:15;;;;;;;3.15;3.05;;;;;;;;;;4989233;28;20478;-42
2021/11/10 02:09:42;;;;;;;3.25;2.97;;;;;;;;;;4986754;28;20121;-41
2021/11/10 02:12:09;;;;;;;3.50;3.15;;;;;;;;;;4990290;28;20051;-41
2021/11/10 02:14:37;;;;;;;3.53;3.42;;;;;;;;;;4991063;28;20053;-41
2021/11/10 02:17:04;;;;;;;3.05;2.78;;;;;;;;;;4982686;28;21082;-40
2021/11/10 02:19:31;;;;;;;3.50;3.30;;;;;;;;;;4989629;28;20406;-41
2021/11/10 02:22:00;;;;;;;3.75;3.45;;;;;;;;;;4989758;28;20070;-41
2021/11/10 02:24:28;;;;;;;2.95;2.85;;;;;;;;;;4989645;28;20042;-41
2021/11/10 02:26:55;;;;;;;3.15;3.03;;;;;;;;;;4990963;28;20046;-42
2021/11/10 02:29:22;;;;;;;2.20;2.08;;;;;;;;;;4987571;28;20438;-41
2021/11/10 02:31:50;;;;;;;3.47;3.17;;;;;;;;;;4983001;28;20073;-41
2021/11/10 02:34:17;;;;;;;4.10;3.60;;;;;;;;;;4984038;28;20438;-40
2021/11/10 02:36:44;;;;;;;3.67;3.58;;;;;;;;;;4982233;28;20042;-41
2021/11/10 02:39:13;;;;;;;3.50;3.40;;;;;;;;;;4989615;28;20097;-41
2021/11/10 02:41:39;;;;;;;3.53;3.42;;;;;;;;;;4984792;28;20050;-41
2021/11/10 02:44:06;;;;;;;3.15;3.05;;;;;;;;;;4980467;28;20035;-41
2021/11/10 02:46:34;;;;;;;4.18;3.97;;;;;;;;;;4989861;28;20133;-41
2021/11/10 02:49:01;;;;;;;6.50;6.18;;;;;;;;;;4981398;28;20038;-41
2021/11/10 02:51:27;;;;;;;7.57;7.38;;;;;;;;;;4990254;28;20049;-42
2021/11/10 02:53:54;;;;;;;7.97;7.72;;;;;;;;;;4987058;28;20463;-40
2021/11/10 02:56:21;;;;;;;9.07;8.02;;;;;;;;;;4988441;28;20066;-41
2021/11/10 02:58:48;;;;;;;8.55;7.95;;;;;;;;;;4989860;28;20089;-40
2021/11/10 03:01:15;;;;;;;7.60;7.38;;;;;;;;;;4987074;28;20035;-41
2021/11/10 03:03:42;;;;;;;7.18;7.07;;;;;;;;;;4989969;28;20457;-41
2021/11/10 03:06:08;;;;;;;8.15;7.85;;;;;;;;;;4987971;28;20046;-41
2021/11/10 03:08:38;;;;;;;8.25;7.78;;;;;;;;;;4987833;28;20042;-41
2021/11/10 03:11:05;;;;;;;7.80;7.70;;;;;;;;;;4989111;28;20061;-41
2021/11/10 03:13:33;;;;;;;6.75;6.65;;;;;;;;;;4985983;28;20069;-41
2021/11/10 03:15:59;;;;;;;7.35;7.25;;;;;;;;;;4989588;28;20446;-42
2021/11/10 03:18:26;;;;;;;6.25;6.05;;;;;;;;;;4986035;28;20447;-41
2021/11/10 03:20:53;;;;;;;6.22;6.03;;;;;;;;;;4986696;28;20043;-41
2021/11/10 03:23:21;;;;;;;7.03;6.50;;;;;;;;;;4988194;28;20042;-41
2021/11/10 03:25:48;;;;;;;5.20;5.10;;;;;;;;;;4986133;28;20732;-42
2021/11/10 03:28:15;;;;;;;6.65;6.35;;;;;;;;;;4987236;28;20126;-41
2021/11/10 03:30:41;;;;;;;6.47;6.28;;;;;;;;;;4986771;28;20034;-41
2021/11/10 03:33:08;;;;;;;5.30;5.20;;;;;;;;;;4986341;28;20034;-41
2021/11/10 03:35:35;;;;;;;3.08;2.47;;;;;;;;;;4982941;28;20109;-41
2021/11/10 03:38:02;;;;;;;5.65;5.40;;;;;;;;;;4987250;28;20433;-41
2021/11/10 03:40:28;;;;;;;5.28;5.05;;;;;;;;;;4988107;28;20787;-41
2021/11/10 03:42:55;;;;;;;3.75;3.65;;;;;;;;;;4988496;28;20434;-41
2021/11/10 03:45:25;;;;;;;3.25;3.17;;;;;;;;;;4987366;28;20035;-41
2021/11/10 03:47:52;;;;;;;3.15;3.00;;;;;;;;;;4982946;28;20129;-41
2021/11/10 03:50:19;;;;;;;4.57;4.47;;;;;;;;;;4981506;28;20062;-41
2021/11/10 03:52:45;;;;;;;5.78;5.53;;;;;;;;;;4974904;28;20101;-41
2021/11/10 03:55:12;;;;;;;7.95;7.72;;;;;;;;;;4992044;28;20120;-41
2021/11/10 03:57:39;;;;;;;7.55;7.45;;;;;;;;;;4990372;28;20050;-40
2021/11/10 04:00:06;;;;;;;9.07;8.68;;;;;;;;;;4992280;28;20100;-41
2021/11/10 04:02:33;;;;;;;8.15;7.88;;;;;;;;;;4990869;28;20053;-40
2021/11/10 04:04:59;;;;;;;8.57;8.23;;;;;;;;;;4982799;28;20038;-40
2021/11/10 04:07:27;;;;;;;7.47;7.35;;;;;;;;;;4991653;28;20042;-40
2021/11/10 04:09:54;;;;;;;8.50;8.30;;;;;;;;;;4990298;28;20031;-41
2021/11/10 04:12:25;;;;;;;7.90;7.70;;;;;;;;;;4993093;28;20149;-41
2021/11/10 04:14:59;;;;;;;8.23;7.70;;;;;;;;;;4990799;28;20645;-41
2021/11/10 04:17:25;;;;;;;6.70;6.40;;;;;;;;;;4987533;28;20093;-41
2021/11/10 04:19:52;;;;;;;5.07;4.85;;;;;;;;;;4985270;28;20070;-40
2021/11/10 04:22:20;;;;;;;6.85;6.45;;;;;;;;;;4987139;28;20035;-41
2021/11/10 04:24:47;;;;;;;7.78;7.35;;;;;;;;;;4992615;28;20382;-41
2021/11/10 04:27:14;;;;;;;8.13;7.97;;;;;;;;;;4991334;28;20088;-40
2021/11/10 04:29:40;;;;;;;7.60;7.50;;;;;;;;;;4991253;28;20035;-40
2021/11/10 04:32:07;;;;;;;9.98;9.32;;;;;;;;;;4992234;28;20035;-40
2021/11/10 04:34:34;;;;;;;9.40;8.45;;;;;;;;;;4991056;28;20035;-41
2021/11/10 04:37:00;;;;;;;10.02;9.73;;;;;;;;;;4990308;28;20047;-41
2021/11/10 04:39:27;;;;;;;10.15;9.68;;;;;;;;;;4991422;28;20475;-40
2021/11/10 04:41:54;;;;;;;8.70;8.30;;;;;;;;;;4990372;28;20134;-41
2021/11/10 04:44:21;;;;;;;9.07;8.95;;;;;;;;;;4992857;28;20502;-41
2021/11/10 04:46:47;;;;;;;9.13;8.65;;;;;;;;;;4989652;28;20062;-41
2021/11/10 04:49:16;;;;;;;8.38;8.05;;;;;;;;;;4988485;28;20027;-41
2021/11/10 04:51:44;;;;;;;5.20;4.78;;;;;;;;;;4992793;28;20046;-41
2021/11/10 04:54:14;;;;;;;7.97;7.75;;;;;;;;;;4990304;28;20474;-41
2021/11/10 04:56:40;;;;;;;7.03;6.85;;;;;;;;;;4991713;28;20046;-41
2021/11/10 04:59:07;;;;;;;8.48;8.38;;;;;;;;;;4989614;28;20050;-41
2021/11/10 05:01:44;;;;;;;9.93;9.52;;;;;;;;;;4988998;28;20050;-41
2021/11/10 05:04:11;;;;;;;6.50;6.22;;;;;;;;;;4990280;28;20038;-40
2021/11/10 05:06:38;;;;;;;8.15;7.88;;;;;;;;;;4988273;28;20114;-41
2021/11/10 05:09:04;;;;;;;7.97;7.30;;;;;;;;;;4989796;28;20080;-41
2021/11/10 05:11:31;;;;;;;9.00;8.63;;;;;;;;;;4991179;28;20498;-41
2021/11/10 05:13:58;;;;;;;7.80;7.50;;;;;;;;;;4990194;28;20089;-41
2021/11/10 05:16:25;;;;;;;6.85;6.47;;;;;;;;;;4992254;28;20062;-41
2021/11/10 05:18:52;;;;;;;4.80;4.53;;;;;;;;;;4986547;28;20038;-41
2021/11/10 05:21:20;;;;;;;5.03;4.93;;;;;;;;;;4981425;28;20372;-41
2021/11/10 05:23:46;;;;;;;8.68;8.40;;;;;;;;;;4982913;28;20039;-41
2021/11/10 05:26:13;;;;;;;3.85;3.75;;;;;;;;;;4980061;28;20034;-41
2021/11/10 05:28:40;;;;;;;9.27;8.70;;;;;;;;;;4991824;28;20112;-41
2021/11/10 05:31:06;;;;;;;5.30;4.63;;;;;;;;;;4988915;28;20089;-41
2021/11/10 05:33:33;;;;;;;9.95;9.60;;;;;;;;;;4988387;28;20042;-41
2021/11/10 05:36:00;;;;;;;11.88;11.57;;;;;;;;;;4987859;28;20047;-41
2021/11/10 05:38:26;;;;;;;7.72;7.43;;;;;;;;;;4981471;28;20500;-40
2021/11/10 05:40:53;;;;;;;7.22;6.93;;;;;;;;;;4991998;28;20109;-41
2021/11/10 05:43:20;;;;;;;8.07;7.72;;;;;;;;;;4988497;28;20046;-41
2021/11/10 05:45:46;;;;;;;7.20;7.03;;;;;;;;;;4989227;28;20108;-40
2021/11/10 05:48:13;;;;;;;9.55;6.75;;;;;;;;;;4981057;28;20035;-41
2021/11/10 05:50:40;;;;;;;8.25;7.72;;;;;;;;;;4983128;28;20042;-41
2021/11/10 05:53:07;;;;;;;5.82;5.53;;;;;;;;;;4990515;28;20038;-41
2021/11/10 05:55:34;;;;;;;4.05;3.85;;;;;;;;;;4988466;28;20047;-41
2021/11/10 05:58:01;;;;;;;3.90;3.58;;;;;;;;;;4988125;28;20050;-41
2021/11/10 06:00:28;;;;;;;4.65;4.43;;;;;;;;;;4990923;28;20061;-40
2021/11/10 06:02:56;;;;;;;5.45;3.08;;;;;;;;;;4988798;28;20049;-41
2021/11/10 06:05:23;;;;;;;2.88;2.67;;;;;;;;;;4982988;28;20060;-40
2021/11/10 06:07:50;;;;;;;3.17;3.00;;;;;;;;;;4988603;28;20058;-41
2021/11/10 06:10:17;;;;;;;3.83;2.80;;;;;;;;;;4988746;28;20049;-41
2021/11/10 06:12:45;;;;;;;8.23;4.70;;;;;;;;;;4990099;28;20085;-40
2021/11/10 06:15:12;;;;;;;3.38;2.97;;;;;;;;;;4985643;28;20475;-41
2021/11/10 06:17:38;;;;;;;3.80;3.45;;;;;;;;;;4987659;28;20744;-41
2021/11/10 06:20:06;;;;;;;3.80;3.47;;;;;;;;;;4989206;28;20109;-41
2021/11/10 06:22:33;;;;;;;4.40;4.10;;;;;;;;;;4978715;28;20042;-41
2021/11/10 06:25:00;;;;;;;3.95;3.35;;;;;;;;;;4988385;28;20108;-45
2021/11/10 06:27:27;;;;;;;3.10;2.88;;;;;;;;;;4984358;28;20041;-45
2021/11/10 06:29:54;;;;;;;5.50;2.75;;;;;;;;;;4974322;28;20042;-44
2021/11/10 06:32:20;;;;;;;3.38;3.17;;;;;;;;;;4990573;28;20469;-45
2021/11/10 06:34:47;;;;;;;3.55;3.10;;;;;;;;;;4987977;28;20042;-44
2021/11/10 06:37:14;;;;;;;4.38;2.65;;;;;;;;;;4989784;28;20108;-44
2021/11/10 06:39:40;;;;;;;6.20;3.03;;;;;;;;;;4987104;28;20046;-45
2021/11/10 06:42:07;;;;;;;3.13;2.88;;;;;;;;;;4988855;28;20042;-45
2021/11/10 06:44:35;;;;;;;7.45;3.65;;;;;;;;;;4984108;28;20096;-45
2021/11/10 06:47:02;;;;;;;3.13;2.90;;;;;;;;;;4987989;28;20042;-46
2021/11/10 06:49:30;;;;;;;3.25;3.10;;;;;;;;;;4986245;28;20033;-45
2021/11/10 06:51:57;;;;;;;4.10;3.90;;;;;;;;;;4988321;28;20108;-45
2021/11/10 06:54:24;;;;;;;4.88;3.50;;;;;;;;;;4987251;28;20030;-45
2021/11/10 06:56:50;;;;;;;4.47;4.13;;;;;;;;;;4977392;28;20054;-44
2021/11/10 06:59:17;;;;;;;5.28;4.53;;;;;;;;;;4981378;28;20041;-45
2021/11/10 07:01:44;;;;;;;6.35;3.97;;;;;;;;;;4989898;28;20670;-47
2021/11/10 07:04:11;;;;;;;4.28;4.07;;;;;;;;;;4986882;28;20049;-45
2021/11/10 07:06:38;;;;;;;5.10;4.70;;;;;;;;;;4988741;28;20069;-46
2021/11/10 07:09:06;;;;;;;5.53;4.70;;;;;;;;;;4980690;28;20447;-45
2021/11/10 07:11:34;;;;;;;6.13;5.63;;;;;;;;;;4982304;28;20053;-45
2021/11/10 07:14:05;;;;;;;11.10;4.63;;;;;;;;;;4989358;28;20035;-45
2021/11/10 07:16:32;;;;;;;3.72;3.53;;;;;;;;;;4987789;28;20124;-45
2021/11/10 07:18:59;;;;;;;3.78;3.58;;;;;;;;;;4987431;28;20038;-45
2021/11/10 07:21:26;;;;;;;4.22;4.03;;;;;;;;;;4990014;28;20105;-45
2021/11/10 07:23:53;;;;;;;6.82;6.22;;;;;;;;;;4988130;28;20074;-45
2021/11/10 07:26:20;;;;;;;5.20;4.78;;;;;;;;;;4974492;28;20070;-45
2021/11/10 07:28:47;;;;;;;17.95;7.15;;;;;;;;;;4988442;28;20426;-45
2021/11/10 07:31:13;;;;;;;6.13;5.03;;;;;;;;;;4986481;28;20363;-44
2021/11/10 07:33:40;;;;;;;6.13;5.07;;;;;;;;;;4989728;28;20046;-46
2021/11/10 07:36:07;;;;;;;5.70;4.47;;;;;;;;;;4986734;28;20042;-46
2021/11/10 07:38:39;;;;;;;5.57;5.20;;;;;;;;;;4987566;28;20054;-46
2021/11/10 07:41:07;;;;;;;5.07;4.57;;;;;;;;;;4988769;28;20046;-45
2021/11/10 07:43:34;;;;;;;4.55;4.15;;;;;;;;;;4986568;28;20047;-45
2021/11/10 07:48:38;;;;;;;5.82;5.53;;;;;;;;;;4986898;28;20455;-46
2021/11/10 07:51:05;;;;;;;8.13;7.15;;;;;;;;;;4987083;28;20043;-47
2021/11/10 07:53:31;;;;;;;8.90;6.55;;;;;;;;;;4983488;28;20034;-46
2021/11/10 07:55:58;;;;;;;7.88;7.07;;;;;;;;;;4985838;28;20050;-46
2021/11/10 07:58:25;;;;;;;10.88;9.98;;;;;;;;;;4971988;28;20039;-48
2021/11/10 08:00:51;;;;;;;10.77;8.75;;;;;;;;;;4988630;28;20074;-47
2021/11/10 08:03:18;;;;;;;10.90;7.90;;;;;;;;;;4986911;28;20042;-46
2021/11/10 08:05:45;;;;;;;7.55;7.05;;;;;;;;;;4989605;28;20081;-49
2021/11/10 08:08:12;;;;;;;8.20;7.45;;;;;;;;;;4984765;28;20057;-48
2021/11/10 08:10:50;;;;;;;12.73;11.40;;;;;;;;;;4974429;28;20371;-45
2021/11/10 08:13:18;;;;;;;7.72;7.03;;;;;;;;;;4989164;28;20042;-46
2021/11/10 08:15:45;;;;;;;7.50;6.65;;;;;;;;;;4986115;28;20043;-46
2021/11/10 08:18:11;;;;;;;6.90;6.50;;;;;;;;;;4987962;28;20662;-46
2021/11/10 08:20:38;;;;;;;9.15;8.38;;;;;;;;;;4985391;28;20026;-49
2021/11/10 08:23:05;;;;;;;14.70;10.60;;;;;;;;;;4987595;28;20034;-48
2021/11/10 08:25:31;;;;;;;9.88;8.95;;;;;;;;;;4980478;28;20043;-46
2021/11/10 08:27:58;;;;;;;12.30;10.05;;;;;;;;;;4979187;28;20034;-49
2021/11/10 08:30:25;;;;;;;7.75;6.40;;;;;;;;;;4971105;28;20050;-46
2021/11/10 08:32:52;;;;;;;5.68;5.25;;;;;;;;;;4987809;28;20065;-46
2021/11/10 08:35:19;;;;;;;6.72;5.80;;;;;;;;;;4987785;28;20108;-45
2021/11/10 08:37:47;;;;;;;4.95;4.65;;;;;;;;;;4989217;28;20034;-47
2021/11/10 08:40:14;;;;;;;5.32;4.57;;;;;;;;;;4988780;28;20491;-46
2021/11/10 08:42:41;;;;;;;5.10;4.78;;;;;;;;;;4992614;28;20459;-47
2021/11/10 08:45:09;;;;;;;5.95;5.55;;;;;;;;;;5005357;28;20073;-46
2021/11/10 08:47:36;;;;;;;6.55;5.00;;;;;;;;;;4990643;28;20041;-46
2021/11/10 08:50:05;;;;;;;5.00;4.53;;;;;;;;;;4992998;28;20403;-48
2021/11/10 08:52:32;;;;;;;4.20;3.90;;;;;;;;;;4990297;28;20073;-46
2021/11/10 08:54:58;;;;;;;4.18;3.85;;;;;;;;;;4981616;28;20046;-46
2021/11/10 08:57:25;;;;;;;4.70;4.30;;;;;;;;;;4991470;28;20082;-46
2021/11/10 08:59:52;;;;;;;4.53;4.13;;;;;;;;;;4989322;28;20129;-46
2021/11/10 09:02:19;;;;;;;7.88;3.97;;;;;;;;;;4992241;28;20042;-49
2021/11/10 09:04:46;;;;;;;6.28;4.88;;;;;;;;;;4989980;28;20050;-49
2021/11/10 09:07:12;;;;;;;4.32;4.03;;;;;;;;;;4988844;28;20042;-49
2021/11/10 09:09:39;;;;;;;6.65;4.13;;;;;;;;;;4986231;28;20049;-49
2021/11/10 09:12:08;;;;;;;4.68;4.20;;;;;;;;;;4988809;28;20065;-45
2021/11/10 09:14:34;;;;;;;4.47;4.20;;;;;;;;;;4991165;28;20039;-46
2021/11/10 09:17:02;;;;;;;3.80;3.60;;;;;;;;;;4988499;28;20092;-46
2021/11/10 09:19:28;;;;;;;4.43;4.10;;;;;;;;;;4987783;28;20054;-45
2021/11/10 09:21:55;;;;;;;4.50;4.25;;;;;;;;;;4989745;28;20057;-45
2021/11/10 09:24:22;;;;;;;4.32;4.10;;;;;;;;;;4982957;28;20038;-46
2021/11/10 09:26:50;;;;;;;4.32;4.20;;;;;;;;;;4991582;28;20042;-45
2021/11/10 09:29:19;;;;;;;5.28;3.90;;;;;;;;;;4989889;28;20529;-45
2021/11/10 09:31:47;;;;;;;3.65;3.35;;;;;;;;;;4988571;28;20364;-45
2021/11/10 09:34:15;;;;;;;4.00;3.60;;;;;;;;;;4980479;28;20045;-45
2021/11/10 09:36:47;;;;;;;4.40;3.58;;;;;;;;;;4984401;28;20096;-46
2021/11/10 09:39:17;;;;;;;4.07;2.10;;;;;;;;;;4991120;28;20347;-46
2021/11/10 09:41:48;;;;;;;6.13;2.42;;;;;;;;;;4985793;28;20498;-46
2021/11/10 09:44:15;;;;;;;2.70;2.50;;;;;;;;;;4980581;28;20053;-46
2021/11/10 09:46:42;;;;;;;4.60;3.05;;;;;;;;;;4991390;28;20116;-46
2021/11/10 09:49:10;;;;;;;4.90;3.40;;;;;;;;;;4987864;28;20041;-46
2021/11/10 09:51:37;;;;;;;6.97;4.85;;;;;;;;;;4988500;28;20395;-45
2021/11/10 09:54:05;;;;;;;5.78;5.30;;;;;;;;;;4989518;28;20050;-46
2021/11/10 09:56:32;;;;;;;4.80;4.50;;;;;;;;;;4988509;28;23186;-45
2021/11/10 09:58:59;;;;;;;6.80;6.10;;;;;;;;;;4976535;28;20074;-46
2021/11/10 10:01:26;;;;;;;4.70;4.30;;;;;;;;;;4986697;28;20038;-46
2021/11/10 10:03:54;;;;;;;5.72;3.88;;;;;;;;;;4990238;28;20046;-45
2021/11/10 10:06:21;;;;;;;7.47;3.90;;;;;;;;;;4989637;28;20043;-46
2021/11/10 10:08:48;;;;;;;4.80;3.35;;;;;;;;;;4989142;28;20360;-45
2021/11/10 10:11:15;;;;;;;6.63;4.47;;;;;;;;;;4991058;28;20089;-46
2021/11/10 10:13:42;;;;;;;4.70;4.38;;;;;;;;;;4987951;28;20038;-45
2021/11/10 10:16:09;;;;;;;10.88;8.02;;;;;;;;;;4989839;28;20411;-46
2021/11/10 10:18:36;;;;;;;15.82;8.07;;;;;;;;;;4988529;28;20041;-45
2021/11/10 10:21:05;;;;;;;249.35;109.50;;;;;;;;;;4987162;28;20113;-46
2021/11/10 10:23:33;;;;;;;397.35;173.73;;;;;;;;;;4984223;28;20089;-46
2021/11/10 10:26:06;;;;;;;179.32;84.25;;;;;;;;;;4989874;28;20048;-45
2021/11/10 10:28:34;;;;;;;87.45;40.58;;;;;;;;;;4987941;28;20374;-46
2021/11/10 10:31:03;;;;;;;37.83;20.20;;;;;;;;;;4990043;28;20038;-46
2021/11/10 10:33:34;;;;;;;98.40;55.58;;;;;;;;;;4986217;28;20164;-45
2021/11/10 10:36:03;;;;;;;37.63;22.05;;;;;;;;;;4973522;28;20098;-46
2021/11/10 10:38:33;;;;;;;13.82;11.88;;;;;;;;;;4990635;28;20042;-45
2021/11/10 10:41:01;;;;;;;5.80;4.25;;;;;;;;;;4979205;28;20046;-45
2021/11/10 10:43:28;;;;;;;7.30;6.65;;;;;;;;;;4989973;28;20107;-46
2021/11/10 10:45:59;;;;;;;6.13;5.22;;;;;;;;;;4987028;28;20038;-45
2021/11/10 10:48:27;;;;;;;6.68;6.07;;;;;;;;;;4980358;28;20046;-46
2021/11/10 10:50:55;;;;;;;9.30;7.05;;;;;;;;;;4989658;28;20073;-46
2021/11/10 10:53:35;;;;;;;5.90;5.45;;;;;;;;;;4987267;28;20042;-46
2021/11/10 10:56:16;;;;;;;5.88;4.20;;;;;;;;;;4982405;28;20570;-46
2021/11/10 10:58:43;;;;;;;8.25;7.60;;;;;;;;;;4987920;28;20038;-45
2021/11/10 11:01:21;;;;;;;6.70;6.13;;;;;;;;;;4986213;28;20050;-45
2021/11/10 11:03:53;;;;;;;17.98;13.55;;;;;;;;;;4990439;28;20153;-46
2021/11/10 11:06:27;;;;;;;6.63;3.72;;;;;;;;;;4987281;28;20026;-45
2021/11/10 11:08:55;;;;;;;3.72;3.47;;;;;;;;;;4987175;28;20073;-46
2021/11/10 11:11:35;;;;;;;3.03;2.78;;;;;;;;;;4989478;28;20046;-47
2021/11/10 11:14:02;;;;;;;5.68;3.65;;;;;;;;;;4987141;28;20046;-47
2021/11/10 11:16:35;;;;;;;8.48;7.80;;;;;;;;;;4987137;28;20027;-46
2021/11/10 11:19:20;;;;;;;9.35;7.85;;;;;;;;;;4987877;28;20034;-46
2021/11/10 11:21:48;;;;;;;5.13;4.80;;;;;;;;;;4986230;28;20046;-45
2021/11/10 11:24:35;;;;;;;4.70;2.72;;;;;;;;;;4989437;28;20133;-45
2021/11/10 11:27:22;;;;;;;3.33;2.80;;;;;;;;;;4989034;28;20138;-45
2021/11/10 11:30:00;;;;;;;4.05;3.75;;;;;;;;;;4985735;28;20034;-46
2021/11/10 11:32:31;;;;;;;4.97;4.13;;;;;;;;;;4987513;28;20096;-45
2021/11/10 11:35:08;;;;;;;2.80;2.58;;;;;;;;;;4988853;28;20070;-46
2021/11/10 11:37:35;;;;;;;4.68;4.38;;;;;;;;;;4986234;28;20046;-46
2021/11/10 11:40:04;;;;;;;4.47;4.07;;;;;;;;;;4976731;28;20035;-47
2021/11/10 11:42:30;;;;;;;2.60;2.45;;;;;;;;;;4985451;28;20089;-47
2021/11/10 11:44:57;;;;;;;19.85;17.98;;;;;;;;;;4983905;28;20763;-47
2021/11/10 11:47:24;;;;;;;11.15;10.25;;;;;;;;;;4996510;28;20046;-47
2021/11/10 11:49:52;;;;;;;5.30;5.00;;;;;;;;;;4987314;28;20042;-47
2021/11/10 11:52:21;;;;;;;5.20;4.70;;;;;;;;;;4989427;28;20386;-46
2021/11/10 11:54:49;;;;;;;4.30;2.40;;;;;;;;;;4988088;28;20035;-46
2021/11/10 11:57:20;;;;;;;3.60;3.30;;;;;;;;;;4975292;28;20110;-47
2021/11/10 11:59:49;;;;;;;4.65;3.25;;;;;;;;;;4987457;28;20053;-46
2021/11/10 12:02:29;;;;;;;3.85;3.20;;;;;;;;;;4986675;28;20495;-47
2021/11/10 12:04:57;;;;;;;2.30;1.92;;;;;;;;;;4985147;28;20038;-46
2021/11/10 12:07:42;;;;;;;7.78;3.63;;;;;;;;;;4988020;28;20089;-48
2021/11/10 12:10:24;;;;;;;4.28;3.45;;;;;;;;;;4988437;28;20045;-46
2021/11/10 12:13:09;;;;;;;3.53;2.65;;;;;;;;;;4986731;28;20113;-46
2021/11/10 12:15:54;;;;;;;3.40;3.20;;;;;;;;;;4990973;28;20500;-46
2021/11/10 12:18:21;;;;;;;6.13;3.15;;;;;;;;;;4991282;28;20418;-48
2021/11/10 12:20:55;;;;;;;3.33;2.70;;;;;;;;;;4991413;28;20073;-47
2021/11/10 12:23:22;;;;;;;4.72;2.78;;;;;;;;;;4991758;28;20036;-48
2021/11/10 12:26:05;;;;;;;4.72;2.30;;;;;;;;;;4980527;28;20074;-46
2021/11/10 12:28:48;;;;;;;6.07;2.13;;;;;;;;;;4981502;28;20463;-46
2021/11/10 12:31:35;;;;;;;3.92;2.05;;;;;;;;;;4986188;28;20117;-46
2021/11/10 12:34:18;;;;;;;4.70;3.13;;;;;;;;;;4991306;28;20046;-47
2021/11/10 12:36:58;;;;;;;3.80;1.60;;;;;;;;;;4992461;28;20039;-46
2021/11/10 12:39:41;;;;;;;4.90;3.50;;;;;;;;;;4990615;28;20030;-50
2021/11/10 12:42:09;;;;;;;6.50;3.65;;;;;;;;;;4986215;28;20038;-49
2021/11/10 12:44:47;;;;;;;4.30;2.80;;;;;;;;;;4992418;28;20046;-48
2021/11/10 12:47:15;;;;;;;6.75;2.78;;;;;;;;;;4990176;28;20081;-48
2021/11/10 12:50:08;;;;;;;3.55;3.28;;;;;;;;;;4990726;28;20066;-50
2021/11/10 12:52:49;;;;;;;5.65;3.22;;;;;;;;;;4986714;28;20054;-45
2021/11/10 12:55:17;;;;;;;3.42;2.60;;;;;;;;;;4983543;28;20038;-46
2021/11/10 12:57:44;;;;;;;2.55;2.20;;;;;;;;;;4977166;28;20455;-45
2021/11/10 13:00:14;;;;;;;3.67;1.77;;;;;;;;;;4989157;28;20129;-46
2021/11/10 13:02:41;;;;;;;1.58;1.48;;;;;;;;;;4989166;28;20049;-46
2021/11/10 13:05:14;;;;;;;4.90;2.03;;;;;;;;;;4992700;28;20092;-45
2021/11/10 13:07:49;;;;;;;;;;;;;;;;;;4989125;28;20054;-46
2021/11/10 13:10:20;;;;;;;7.60;5.90;;;;;;;;;;4985877;28;20016;-45
2021/11/10 13:12:46;;;;;;;3.00;2.50;;;;;;;;;;4990804;28;20034;-47
2021/11/10 13:15:20;;;;;;;3.28;2.90;;;;;;;;;;4990060;28;20128;-45
2021/11/10 13:17:47;;;;;;;4.05;3.05;;;;;;;;;;4990339;28;20035;-45
2021/11/10 13:20:15;;;;;;;3.92;2.45;;;;;;;;;;4988911;28;20042;-48
2021/11/10 13:22:50;;;;;;;3.58;3.35;;;;;;;;;;4990043;28;20132;-45
2021/11/10 13:25:24;;;;;;;2.58;2.25;;;;;;;;;;4989765;28;20054;-45
2021/11/10 13:27:55;;;;;;;3.15;2.95;;;;;;;;;;4988941;28;20093;-46
2021/11/10 13:30:42;;;;;;;8.65;7.30;;;;;;;;;;4974438;28;20526;-46
2021/11/10 13:33:18;;;;;;;6.68;2.45;;;;;;;;;;4984664;28;20051;-45
2021/11/10 13:35:45;;;;;;;7.95;2.45;;;;;;;;;;4987777;28;20564;-45
2021/11/10 13:38:12;;;;;;;3.47;2.10;;;;;;;;;;4992268;28;20097;-46
2021/11/10 13:40:46;;;;;;;2.50;1.80;;;;;;;;;;4986281;28;20049;-45
2021/11/10 13:43:13;;;;;;;14.88;5.32;;;;;;;;;;4989619;28;20129;-46
2021/11/10 13:45:43;;;;;;;8.98;5.50;;;;;;;;;;4989920;28;20050;-45
2021/11/10 13:48:09;;;;;;;5.47;4.20;;;;;;;;;;4986013;28;20497;-46
2021/11/10 13:50:38;;;;;;;2.83;2.17;;;;;;;;;;4986162;28;20058;-45
2021/11/10 13:53:27;;;;;;;4.30;2.00;;;;;;;;;;4988692;28;20096;-46
2021/11/10 13:55:58;;;;;;;3.85;2.30;;;;;;;;;;4981299;28;20048;-45
2021/11/10 13:58:25;;;;;;;21.48;11.15;;;;;;;;;;4975295;28;20053;-45
2021/11/10 14:00:55;;;;;;;5.85;2.88;;;;;;;;;;4984816;28;20046;-47
2021/11/10 14:03:27;;;;;;;4.68;2.20;;;;;;;;;;4990220;28;20042;-46
2021/11/10 14:05:54;;;;;;;1.98;1.88;;;;;;;;;;4988730;28;20407;-44
2021/11/10 14:08:22;;;;;;;1.92;1.83;;;;;;;;;;4981679;28;20051;-45
2021/11/10 14:10:57;;;;;;;3.90;1.55;;;;;;;;;;4978377;28;20039;-47
2021/11/10 14:13:23;;;;;;;3.13;1.33;;;;;;;;;;4982995;28;20093;-46
2021/11/10 14:15:50;;;;;;;1.58;1.48;;;;;;;;;;4977076;28;20050;-45
2021/11/10 14:18:18;;;;;;;1.83;1.73;;;;;;;;;;4990171;28;20074;-45
2021/11/10 14:20:58;;;;;;;2.35;1.38;;;;;;;;;;4988846;28;20481;-45
2021/11/10 14:23:32;;;;;;;2.15;1.95;;;;;;;;;;4988732;28;20458;-45
2021/11/10 14:26:29;;;;;;;7.25;1.85;;;;;;;;;;4990180;28;20068;-45
2021/11/10 14:29:00;;;;;;;3.40;2.38;;;;;;;;;;4988136;28;20070;-45
2021/11/10 14:31:27;;;;;;;1.60;1.13;;;;;;;;;;4989607;28;20595;-45
2021/11/10 14:33:59;;;;;;;1.85;1.48;;;;;;;;;;4981524;28;20042;-46
2021/11/10 14:36:26;;;;;;;1.98;1.83;;;;;;;;;;4983944;28;20043;-45
2021/11/10 14:38:54;;;;;;;1.70;1.40;;;;;;;;;;4981998;28;20038;-47
2021/11/10 14:41:31;;;;;;;1.85;1.20;;;;;;;;;;4986203;28;20435;-47
2021/11/10 14:43:59;;;;;;;3.15;1.40;;;;;;;;;;4989563;28;20587;-47
2021/11/10 14:49:02;;;;;;;1.50;1.40;;;;;;;;;;4986789;28;20046;-45
2021/11/10 14:51:30;;;;;;;3.23;1.50;;;;;;;;;;4988066;28;20034;-45
2021/11/10 14:53:58;;;;;;;4.53;1.80;;;;;;;;;;4989633;28;20046;-47
2021/11/10 14:56:25;;;;;;;1.48;1.35;;;;;;;;;;4987533;28;20030;-46